Time;durP1;ratioP1;P1;durP2;ratioP2;P2;SDS_P1;SDS_P2;PMS_P1;PMS_P2;Temp;Humidity;BMP_temperature;BMP_pressure;BME280_temperature;BME280_humidity;BME280_pressure;Samples;Min_cycle;Max_cycle;Signal;HPM_P1;HPM_P2
2022/04/27 00:01:39;;;;;;;10.58;8.68;;;;;;;10.38;100.00;100654.77;1773196;80;21234;-45
2022/04/27 00:04:07;;;;;;;12.05;9.68;;;;;;;10.43;100.00;100661.17;1768143;80;20972;-45
2022/04/27 00:06:34;;;;;;;12.18;9.40;;;;;;;10.47;100.00;100665.42;1768267;80;20976;-45
2022/04/27 00:09:03;;;;;;;14.47;9.25;;;;;;;10.49;100.00;100669.72;1768154;81;20901;-45
2022/04/27 00:11:31;;;;;;;10.08;8.83;;;;;;;10.50;100.00;100670.59;1768179;80;21518;-45
2022/04/27 00:14:00;;;;;;;12.05;8.73;;;;;;;10.53;100.00;100673.12;1768316;80;20869;-45
2022/04/27 00:16:27;;;;;;;10.60;8.58;;;;;;;10.54;100.00;100670.08;1768102;81;20842;-45
2022/04/27 00:18:54;;;;;;;10.40;8.05;;;;;;;10.54;100.00;100676.12;1768425;81;21024;-45
2022/04/27 00:21:22;;;;;;;9.68;7.90;;;;;;;10.53;100.00;100670.96;1768273;81;21458;-45
2022/04/27 00:23:48;;;;;;;11.48;8.20;;;;;;;10.49;100.00;100676.64;1768213;80;21464;-45
2022/04/27 00:26:15;;;;;;;10.23;8.93;;;;;;;10.46;100.00;100675.36;1768312;80;21093;-45
2022/04/27 00:28:42;;;;;;;9.83;8.25;;;;;;;10.41;100.00;100679.34;1768089;80;20941;-45
2022/04/27 00:31:10;;;;;;;8.83;7.95;;;;;;;10.40;100.00;100683.19;1768116;80;20984;-45
2022/04/27 00:33:38;;;;;;;11.38;8.85;;;;;;;10.37;100.00;100681.52;1768151;80;20901;-45
2022/04/27 00:36:05;;;;;;;9.88;8.43;;;;;;;10.34;100.00;100681.11;1752309;81;20933;-45
2022/04/27 00:38:33;;;;;;;12.47;8.23;;;;;;;10.28;100.00;100681.63;1749839;82;21467;-45
2022/04/27 00:41:01;;;;;;;9.40;8.45;;;;;;;10.23;100.00;100681.70;1749713;82;20980;-45
2022/04/27 00:43:38;;;;;;;11.03;8.35;;;;;;;10.18;100.00;100685.64;1749862;82;20944;-45
2022/04/27 00:46:05;;;;;;;6.47;5.83;;;;;;;10.17;100.00;100694.70;1749875;82;20928;-45
2022/04/27 00:48:31;;;;;;;9.88;8.58;;;;;;;10.16;100.00;100689.11;1749861;82;20920;-45
2022/04/27 00:51:01;;;;;;;12.40;8.53;;;;;;;10.14;100.00;100693.03;1749957;82;20916;-45
2022/04/27 00:53:29;;;;;;;9.30;8.35;;;;;;;10.14;100.00;100696.03;1749802;82;20976;-45
2022/04/27 00:55:58;;;;;;;9.33;8.33;;;;;;;10.12;100.00;100695.20;1749894;82;21363;-45
2022/04/27 00:58:26;;;;;;;11.33;8.98;;;;;;;10.06;100.00;100702.59;1749863;82;20905;-45
2022/04/27 01:00:55;;;;;;;10.50;9.40;;;;;;;9.98;100.00;100693.66;1749992;82;20971;-45
2022/04/27 01:03:23;;;;;;;11.08;8.40;;;;;;;9.93;100.00;100692.84;1744759;82;21177;-45
2022/04/27 01:05:51;;;;;;;9.40;8.50;;;;;;;9.87;100.00;100704.13;1708476;84;20991;-45
2022/04/27 01:08:24;;;;;;;12.18;8.75;;;;;;;9.83;100.00;100703.72;1708514;84;21504;-45
2022/04/27 01:10:50;;;;;;;13.30;8.50;;;;;;;9.78;100.00;100702.50;1708424;84;21018;-46
2022/04/27 01:13:20;;;;;;;11.12;9.35;;;;;;;9.75;100.00;100701.25;1688811;84;20982;-45
2022/04/27 01:15:50;;;;;;;9.05;7.97;;;;;;;9.73;100.00;100706.88;1744306;82;21426;-45
2022/04/27 01:18:16;;;;;;;9.38;8.43;;;;;;;9.71;100.00;100706.45;1743990;82;21016;-45
2022/04/27 01:20:47;;;;;;;11.55;8.60;;;;;;;9.66;100.00;100710.38;1708466;84;20947;-45
2022/04/27 01:23:15;;;;;;;8.75;7.83;;;;;;;9.60;100.00;100703.98;1723742;82;20932;-45
2022/04/27 01:25:52;;;;;;;9.93;8.78;;;;;;;9.58;100.00;100708.31;1708569;84;20911;-45
2022/04/27 01:28:29;;;;;;;10.53;8.83;;;;;;;9.53;100.00;100702.34;1708338;83;21334;-44
2022/04/27 01:31:03;;;;;;;9.00;8.20;;;;;;;9.46;100.00;100710.58;1708808;84;20962;-44
2022/04/27 01:33:30;;;;;;;12.13;9.20;;;;;;;9.41;100.00;100708.48;1708486;84;20879;-45
2022/04/27 01:35:58;;;;;;;9.98;9.08;;;;;;;9.38;100.00;100713.69;1688256;84;21017;-45
2022/04/27 01:38:27;;;;;;;15.88;9.18;;;;;;;9.34;100.00;100712.39;1744279;82;20972;-45
2022/04/27 01:40:55;;;;;;;10.10;8.90;;;;;;;9.29;100.00;100702.55;1708381;84;21177;-45
2022/04/27 01:43:24;;;;;;;10.40;8.20;;;;;;;9.28;100.00;100713.75;1744215;82;21016;-45
2022/04/27 01:45:52;;;;;;;9.88;8.48;;;;;;;9.25;100.00;100716.81;1708678;84;20985;-45
2022/04/27 01:48:18;;;;;;;9.05;8.15;;;;;;;9.19;100.00;100720.30;1708509;83;20914;-45
2022/04/27 01:50:45;;;;;;;9.20;8.30;;;;;;;9.11;100.00;100713.91;1708594;84;20998;-45
2022/04/27 01:55:58;;;;;;;11.68;8.43;;;;;;;9.06;100.00;100721.67;1708644;84;20978;-45
2022/04/27 01:58:25;;;;;;;8.58;7.78;;;;;;;9.04;100.00;100718.70;1723122;82;20921;-45
2022/04/27 02:00:53;;;;;;;11.53;8.38;;;;;;;9.03;100.00;100726.03;1744162;82;21550;-45
2022/04/27 02:03:21;;;;;;;8.75;7.97;;;;;;;8.99;100.00;100724.34;1692039;83;21523;-45
2022/04/27 02:05:48;;;;;;;10.15;7.75;;;;;;;8.97;100.00;100731.21;1722569;83;21519;-45
2022/04/27 02:08:17;;;;;;;7.60;6.90;;;;;;;8.93;100.00;100737.27;1659282;85;21022;-45
2022/04/27 02:10:45;;;;;;;7.72;7.05;;;;;;;8.89;100.00;100741.17;1722374;82;20893;-45
2022/04/27 02:13:13;;;;;;;8.65;7.20;;;;;;;8.89;100.00;100738.59;1722352;82;21471;-45
2022/04/27 02:17:59;;;;;;;13.72;8.15;;;;;;;8.94;100.00;100737.70;1816165;79;22621;-44
2022/04/27 02:20:27;;;;;;;9.00;8.20;;;;;;;8.87;100.00;100739.03;1758911;80;20912;-44
2022/04/27 02:22:54;;;;;;;9.40;8.43;;;;;;;8.84;100.00;100731.31;1789329;80;22145;-44
2022/04/27 02:25:22;;;;;;;10.82;9.73;;;;;;;8.83;100.00;100742.52;1789243;80;21525;-45
2022/04/27 02:27:52;;;;;;;12.20;10.03;;;;;;;8.84;100.00;100755.84;1789238;80;21414;-46
2022/04/27 02:30:19;;;;;;;11.18;9.95;;;;;;;8.84;100.00;100753.26;1789323;80;20999;-46
2022/04/27 02:32:46;;;;;;;19.90;10.53;;;;;;;8.85;100.00;100753.68;1789344;80;21018;-46
2022/04/27 02:35:14;;;;;;;11.33;10.18;;;;;;;8.86;100.00;100760.56;1789223;80;21103;-46
2022/04/27 02:37:41;;;;;;;10.95;9.48;;;;;;;8.89;100.00;100765.70;1758617;80;20880;-46
2022/04/27 02:40:09;;;;;;;15.13;9.63;;;;;;;8.95;100.00;100769.97;1789340;79;20999;-46
2022/04/27 02:42:38;;;;;;;11.38;8.15;;;;;;;8.99;100.00;100770.82;1789209;80;20936;-46
2022/04/27 02:45:08;;;;;;;10.28;8.30;;;;;;;9.02;100.00;100778.55;1758576;80;20912;-46
2022/04/27 02:47:36;;;;;;;10.28;8.25;;;;;;;9.05;100.00;100772.06;1789457;80;21167;-44
2022/04/27 02:52:51;;;;;;;10.38;8.05;;;;;;;9.09;100.00;100769.88;1759371;80;21497;-45
2022/04/27 02:55:22;;;;;;;9.80;7.90;;;;;;;9.10;100.00;100769.00;1788066;80;21438;-45
2022/04/27 02:57:49;;;;;;;8.80;7.97;;;;;;;9.15;100.00;100771.56;1789047;80;21044;-45
2022/04/27 03:00:16;;;;;;;9.28;7.97;;;;;;;9.17;100.00;100773.25;1789243;80;21195;-45
2022/04/27 03:02:45;;;;;;;8.60;7.60;;;;;;;9.20;100.00;100777.09;1789172;80;20935;-45
2022/04/27 03:05:11;;;;;;;8.63;7.83;;;;;;;9.23;100.00;100781.39;1789148;80;21007;-45
2022/04/27 03:07:40;;;;;;;8.38;7.60;;;;;;;9.28;100.00;100781.37;1789205;80;20905;-45
2022/04/27 03:10:09;;;;;;;9.33;7.75;;;;;;;9.31;100.00;100778.75;1789204;80;20928;-45
2022/04/27 03:12:36;;;;;;;9.98;7.70;;;;;;;9.33;100.00;100781.73;1789235;80;21900;-45
2022/04/27 03:15:06;;;;;;;8.60;7.80;;;;;;;9.34;100.00;100774.41;1789118;80;21042;-45
2022/04/27 03:17:32;;;;;;;9.05;7.28;;;;;;;9.37;100.00;100777.86;1783556;80;20920;-45
2022/04/27 03:19:59;;;;;;;7.67;6.97;;;;;;;9.38;100.00;100780.41;1781406;80;20933;-45
2022/04/27 03:22:28;;;;;;;8.78;6.78;;;;;;;9.40;100.00;100779.13;1781499;80;22768;-44
2022/04/27 03:24:56;;;;;;;8.08;7.10;;;;;;;9.44;100.00;100785.97;1778584;80;20846;-45
2022/04/27 03:27:24;;;;;;;7.37;6.72;;;;;;;9.45;100.00;100781.22;1780870;80;20869;-45
2022/04/27 03:29:53;;;;;;;6.42;5.92;;;;;;;9.48;100.00;100784.65;1780981;80;21493;-46
2022/04/27 03:32:20;;;;;;;8.13;7.33;;;;;;;9.54;100.00;100795.80;1781009;80;20928;-46
2022/04/27 03:34:51;;;;;;;6.95;6.35;;;;;;;9.59;100.00;100788.86;1779325;80;20967;-47
2022/04/27 03:37:19;;;;;;;7.45;6.72;;;;;;;9.65;100.00;100791.83;1780905;80;21241;-45
2022/04/27 03:39:45;;;;;;;6.85;6.25;;;;;;;9.68;100.00;100794.38;1780801;80;20923;-46
2022/04/27 03:42:15;;;;;;;7.42;6.72;;;;;;;9.69;100.00;100803.84;1780940;80;20971;-46
2022/04/27 03:44:43;;;;;;;7.12;6.05;;;;;;;9.71;100.00;100804.69;1780900;80;20987;-46
2022/04/27 03:47:10;;;;;;;9.40;7.58;;;;;;;9.70;100.00;100808.98;1752635;80;20948;-45
2022/04/27 03:49:37;;;;;;;7.72;6.83;;;;;;;9.71;100.00;100815.03;1780868;80;21138;-46
2022/04/27 03:52:05;;;;;;;7.37;6.50;;;;;;;9.74;100.00;100818.88;1780938;80;20881;-46
2022/04/27 03:54:31;;;;;;;7.15;6.50;;;;;;;9.80;100.00;100823.14;1752294;80;21551;-45
2022/04/27 03:56:58;;;;;;;10.50;6.60;;;;;;;9.89;100.00;100823.05;1780729;80;20976;-46
2022/04/27 03:59:25;;;;;;;9.55;7.17;;;;;;;10.02;100.00;100831.11;1780841;80;20933;-46
2022/04/27 04:01:54;;;;;;;7.83;6.25;;;;;;;10.15;100.00;100822.79;1780830;80;20916;-44
2022/04/27 04:04:22;;;;;;;6.00;5.47;;;;;;;10.29;100.00;100834.70;1781014;80;20968;-44
2022/04/27 04:06:50;;;;;;;8.08;6.22;;;;;;;10.40;100.00;100833.28;1780986;80;21462;-44
2022/04/27 04:09:17;;;;;;;5.53;5.03;;;;;;;10.49;100.00;100835.81;1780876;80;20968;-45
2022/04/27 04:11:44;;;;;;;6.22;5.72;;;;;;;10.57;100.00;100844.34;1780895;80;20960;-45
2022/04/27 04:14:15;;;;;;;5.75;5.20;;;;;;;10.57;100.00;100838.28;1776532;80;21191;-45
2022/04/27 04:16:45;;;;;;;6.10;5.50;;;;;;;10.55;100.00;100852.56;1780527;80;20971;-46
2022/04/27 04:19:36;;;;;;;11.33;5.62;;;;;;;10.57;100.00;100846.92;1780827;80;21082;-46
2022/04/27 04:22:08;;;;;;;7.17;5.67;;;;;;;10.61;100.00;100851.64;1777130;80;20904;-45
2022/04/27 04:24:37;;;;;;;7.12;5.78;;;;;;;10.61;100.00;100855.06;1778473;80;20896;-44
2022/04/27 04:29:50;;;;;;;5.47;4.97;;;;;;;10.61;100.00;100869.30;1780894;80;21466;-44
2022/04/27 04:32:17;;;;;;;6.05;5.45;;;;;;;10.63;100.00;100870.59;1752478;80;20987;-45
2022/04/27 04:34:58;;;;;;;5.90;5.30;;;;;;;10.68;100.00;100874.40;1777622;80;20901;-45
2022/04/27 04:37:25;;;;;;;6.67;5.80;;;;;;;10.72;100.00;100877.37;1780800;80;20921;-45
2022/04/27 04:39:52;;;;;;;5.60;5.10;;;;;;;10.71;100.00;100879.53;1780842;80;22248;-45
2022/04/27 04:42:19;;;;;;;5.80;4.97;;;;;;;10.70;100.00;100876.53;1780658;80;20987;-45
2022/04/27 04:44:48;;;;;;;5.70;5.20;;;;;;;10.71;100.00;100880.83;1780735;80;21355;-45
2022/04/27 04:47:17;;;;;;;7.20;5.83;;;;;;;10.75;100.00;100877.36;1779630;80;20967;-45
2022/04/27 04:50:04;;;;;;;5.53;5.00;;;;;;;10.80;100.00;100876.86;1780926;80;20952;-44
2022/04/27 04:52:34;;;;;;;6.45;5.22;;;;;;;10.89;100.00;100887.54;1778994;80;20933;-45
2022/04/27 04:55:19;;;;;;;6.15;4.95;;;;;;;10.95;100.00;100887.87;1780924;80;21490;-45
2022/04/27 04:57:54;;;;;;;5.28;4.78;;;;;;;11.03;100.00;100898.56;1776333;80;20897;-44
2022/04/27 05:00:41;;;;;;;6.75;5.42;;;;;;;11.11;99.44;100901.48;1780743;80;20984;-45
2022/04/27 05:03:10;;;;;;;8.18;5.10;;;;;;;11.23;98.09;100899.16;1778668;80;20877;-45
2022/04/27 05:05:39;;;;;;;5.40;4.90;;;;;;;11.28;97.94;100899.52;1776534;80;21490;-47
2022/04/27 05:08:17;;;;;;;4.97;4.53;;;;;;;11.36;98.10;100900.71;1779400;80;20972;-44
2022/04/27 05:11:04;;;;;;;7.87;4.90;;;;;;;11.34;96.42;100909.79;1778710;80;20893;-45
2022/04/27 05:13:42;;;;;;;5.00;4.60;;;;;;;11.34;96.30;100920.61;1687980;84;21017;-44
2022/04/27 05:16:18;;;;;;;;;;;;;;;11.38;96.99;100917.09;1757160;80;21479;-45
2022/04/27 05:19:00;;;;;;;5.08;4.65;;;;;;;11.46;95.21;100922.17;1777056;80;21175;-45
2022/04/27 05:21:46;;;;;;;4.75;4.35;;;;;;;11.46;94.80;100924.30;1780794;80;20967;-46
2022/04/27 05:24:29;;;;;;;5.75;3.98;;;;;;;11.55;95.40;100930.26;1777155;80;21370;-45
2022/04/27 05:27:08;;;;;;;4.65;4.33;;;;;;;11.71;94.34;100930.88;1780207;80;20888;-46
2022/04/27 05:32:28;;;;;;;4.25;3.92;;;;;;;11.96;92.53;100934.38;1780727;80;21588;-45
2022/04/27 05:35:00;;;;;;;5.05;4.00;;;;;;;12.24;89.12;100934.77;1726362;80;20924;-45
2022/04/27 05:37:34;;;;;;;5.70;3.90;;;;;;;12.33;89.07;100936.34;1779222;80;20900;-45
2022/04/27 05:40:06;;;;;;;4.37;3.98;;;;;;;12.62;88.79;100924.13;1779077;80;20900;-45
2022/04/27 05:42:36;;;;;;;4.37;4.08;;;;;;;12.76;85.61;100933.41;1779473;80;20881;-46
2022/04/27 05:45:14;;;;;;;6.75;3.98;;;;;;;12.65;85.84;100937.51;1687800;83;21101;-45
2022/04/27 05:48:00;;;;;;;6.22;4.42;;;;;;;12.58;86.84;100936.77;1781091;80;28533;-45
2022/04/27 05:50:35;;;;;;;4.90;4.37;;;;;;;12.59;86.41;100937.60;1779144;80;21466;-46
2022/04/27 05:53:13;;;;;;;4.90;4.47;;;;;;;12.53;86.38;100938.59;1776941;80;20972;-46
2022/04/27 05:55:44;;;;;;;7.55;4.30;;;;;;;12.57;86.65;100942.84;1774949;80;20968;-46
2022/04/27 05:58:30;;;;;;;6.62;4.17;;;;;;;12.50;86.07;100950.31;1780627;80;21886;-46
2022/04/27 06:01:14;;;;;;;5.30;4.78;;;;;;;12.47;87.06;100949.08;1780134;80;20977;-44
2022/04/27 06:03:44;;;;;;;7.60;4.65;;;;;;;12.60;86.90;100951.87;1779753;80;21012;-45
2022/04/27 06:06:11;;;;;;;4.33;3.92;;;;;;;12.61;85.21;100965.27;1780551;80;21490;-45
2022/04/27 06:08:39;;;;;;;6.70;4.92;;;;;;;12.55;85.59;100960.62;1780857;80;20987;-45
2022/04/27 06:11:08;;;;;;;5.10;4.60;;;;;;;12.62;85.93;100959.19;1780977;80;21030;-45
2022/04/27 06:13:36;;;;;;;9.73;4.60;;;;;;;12.63;86.35;100960.03;1776921;80;20877;-45
2022/04/27 06:16:22;;;;;;;6.28;4.90;;;;;;;12.75;86.08;100960.23;1746972;80;21305;-46
2022/04/27 06:18:52;;;;;;;8.73;3.10;;;;;;;13.04;85.46;100957.52;1779034;80;20896;-46
2022/04/27 06:21:18;;;;;;;2.90;2.72;;;;;;;13.23;81.51;100961.42;1752370;80;20980;-47
2022/04/27 06:23:46;;;;;;;3.40;3.10;;;;;;;13.31;78.25;100965.63;1780900;80;22010;-45
2022/04/27 06:26:14;;;;;;;6.12;5.62;;;;;;;13.37;77.93;100962.42;1780950;80;20916;-46
2022/04/27 06:28:44;;;;;;;10.30;6.17;;;;;;;13.66;79.59;100966.59;1780707;80;20912;-45
2022/04/27 06:31:11;;;;;;;7.35;5.78;;;;;;;13.60;79.99;100964.14;1780466;80;20893;-49
2022/04/27 06:33:38;;;;;;;9.85;5.55;;;;;;;13.45;80.10;100970.55;1778010;80;20988;-44
2022/04/27 06:36:06;;;;;;;5.85;5.25;;;;;;;13.33;81.23;100968.58;1780530;80;21076;-45
2022/04/27 06:38:33;;;;;;;3.87;3.58;;;;;;;13.28;79.90;100974.80;1780477;80;21447;-45
2022/04/27 06:41:02;;;;;;;5.75;5.25;;;;;;;13.16;78.24;100975.91;1779705;80;20967;-45
2022/04/27 06:43:31;;;;;;;9.90;6.37;;;;;;;13.28;78.89;100981.30;1779916;80;21560;-45
2022/04/27 06:46:18;;;;;;;10.40;6.05;;;;;;;13.51;80.48;100982.11;1780740;80;20869;-45
2022/04/27 06:49:04;;;;;;;7.67;6.03;;;;;;;13.62;79.38;100989.21;1780808;80;21160;-45
2022/04/27 06:51:50;;;;;;;13.83;6.03;;;;;;;13.64;77.43;100985.28;1780654;80;20913;-45
2022/04/27 06:54:22;;;;;;;7.72;5.80;;;;;;;13.54;78.47;100989.00;1726704;80;21462;-45
2022/04/27 06:57:08;;;;;;;6.80;5.00;;;;;;;13.38;79.02;100990.59;1780834;80;21030;-45
2022/04/27 06:59:49;;;;;;;9.48;4.67;;;;;;;13.31;78.30;100987.26;1779779;80;20964;-45
2022/04/27 07:02:17;;;;;;;6.20;5.03;;;;;;;13.35;79.25;100993.27;1780770;80;21352;-46
2022/04/27 07:04:51;;;;;;;7.70;5.65;;;;;;;13.59;77.99;100989.75;1780831;80;21451;-46
2022/04/27 07:07:14;;;;;;;6.78;5.35;;;;;;;13.90;76.18;100991.20;1780135;80;21007;-46
2022/04/27 07:09:42;;;;;;;6.17;5.10;;;;;;;14.06;76.62;100990.38;1780836;80;21038;-46
2022/04/27 07:12:09;;;;;;;6.40;5.25;;;;;;;13.98;75.18;100989.69;1780916;80;20995;-46
2022/04/27 07:14:36;;;;;;;9.00;4.70;;;;;;;13.63;76.96;100996.58;1777962;80;21087;-45
2022/04/27 07:17:04;;;;;;;6.62;5.28;;;;;;;13.62;77.97;100998.78;1781210;80;20913;-45
2022/04/27 07:19:32;;;;;;;4.50;4.10;;;;;;;13.73;76.90;100988.12;1780869;80;21387;-45
2022/04/27 07:21:59;;;;;;;4.22;3.92;;;;;;;13.86;75.17;100991.30;1780885;80;21534;-46
2022/04/27 07:24:27;;;;;;;4.35;3.87;;;;;;;13.98;75.82;100996.19;1780926;80;20991;-45
2022/04/27 07:26:56;;;;;;;4.17;3.65;;;;;;;14.28;74.80;100991.58;1781019;80;23050;-45
2022/04/27 07:29:23;;;;;;;4.78;4.28;;;;;;;14.59;73.11;100992.95;1780586;80;20928;-47
2022/04/27 07:31:50;;;;;;;3.80;3.50;;;;;;;14.60;70.36;100996.39;1780985;80;20992;-46
2022/04/27 07:34:18;;;;;;;6.85;4.08;;;;;;;14.40;71.68;101008.64;1780887;80;20940;-46
2022/04/27 07:36:45;;;;;;;5.22;3.50;;;;;;;14.62;72.60;101003.72;1780634;80;20949;-47
2022/04/27 07:39:11;;;;;;;5.58;4.22;;;;;;;14.83;69.29;101004.94;1780691;80;21553;-46
2022/04/27 07:41:39;;;;;;;3.80;2.50;;;;;;;14.98;68.43;101005.39;1780825;80;21514;-47
2022/04/27 07:44:07;;;;;;;2.60;2.42;;;;;;;14.94;64.72;101002.03;1780782;80;20933;-45
2022/04/27 07:46:34;;;;;;;3.85;2.60;;;;;;;14.98;62.64;101011.91;1780815;80;20933;-46
2022/04/27 07:49:02;;;;;;;3.55;3.25;;;;;;;15.15;62.92;101017.51;1780816;80;20968;-46
2022/04/27 07:51:28;;;;;;;4.70;2.37;;;;;;;15.27;64.36;101008.91;1780717;80;21286;-47
2022/04/27 07:53:55;;;;;;;3.67;2.90;;;;;;;15.03;61.56;101019.14;1780593;80;20936;-45
2022/04/27 07:56:22;;;;;;;4.78;3.10;;;;;;;14.82;61.98;101014.95;1780498;80;21142;-46
2022/04/27 07:58:50;;;;;;;5.55;3.83;;;;;;;14.98;65.04;101014.52;1780811;80;20885;-46
2022/04/27 08:01:16;;;;;;;4.42;4.03;;;;;;;15.14;65.47;101015.80;1780718;80;21455;-46
2022/04/27 08:03:44;;;;;;;4.75;3.50;;;;;;;15.28;64.50;101016.70;1780916;80;21141;-46
2022/04/27 08:06:12;;;;;;;4.92;3.45;;;;;;;15.37;65.40;101014.28;1780866;80;21371;-47
2022/04/27 08:08:39;;;;;;;4.20;3.10;;;;;;;15.58;63.56;101011.47;1780598;80;21427;-47
2022/04/27 08:11:09;;;;;;;2.90;2.77;;;;;;;15.67;61.75;101005.11;1780930;80;20964;-45
2022/04/27 08:13:37;;;;;;;6.28;2.65;;;;;;;15.71;57.85;101009.33;1780873;80;21046;-46
2022/04/27 08:16:07;;;;;;;3.27;3.08;;;;;;;15.70;60.67;101007.63;1780862;80;20972;-47
2022/04/27 08:18:35;;;;;;;6.33;3.20;;;;;;;15.73;61.34;101007.52;1777970;80;20964;-46
2022/04/27 08:21:15;;;;;;;3.10;2.80;;;;;;;15.87;60.83;101004.94;1774918;80;20901;-47
2022/04/27 08:23:47;;;;;;;4.37;3.42;;;;;;;15.96;60.03;101004.67;1774919;80;21000;-47
2022/04/27 08:26:14;;;;;;;4.60;3.22;;;;;;;15.71;59.56;101009.33;1774953;80;20933;-47
2022/04/27 08:28:41;;;;;;;3.77;3.22;;;;;;;15.51;59.80;101013.86;1775080;80;21155;-47
2022/04/27 08:31:09;;;;;;;5.50;2.95;;;;;;;15.37;60.27;101005.98;1774931;80;20885;-47
2022/04/27 08:33:37;;;;;;;4.28;3.15;;;;;;;15.37;60.36;101011.20;1775096;80;20961;-47
2022/04/27 08:36:04;;;;;;;5.35;3.27;;;;;;;15.58;59.77;101011.93;1775038;80;20964;-47
2022/04/27 08:38:34;;;;;;;3.35;3.05;;;;;;;15.75;59.03;101011.41;1774977;80;20988;-47
2022/04/27 08:41:01;;;;;;;5.95;3.25;;;;;;;15.79;57.42;101017.80;1753756;80;22042;-46
2022/04/27 08:43:28;;;;;;;8.30;3.22;;;;;;;15.64;59.15;101013.03;1778454;80;20889;-45
2022/04/27 08:45:55;;;;;;;4.50;3.00;;;;;;;15.71;56.19;101012.41;1775131;80;20897;-45
2022/04/27 08:48:22;;;;;;;8.50;3.60;;;;;;;15.60;55.41;101018.79;1775116;80;20893;-47
2022/04/27 08:50:50;;;;;;;4.85;2.55;;;;;;;15.64;57.10;101016.95;1775149;80;20960;-46
2022/04/27 08:53:18;;;;;;;3.02;2.30;;;;;;;15.66;55.76;101021.67;1753346;80;21044;-47
2022/04/27 08:55:45;;;;;;;3.95;2.65;;;;;;;15.55;55.63;101022.46;1775065;80;21056;-46
2022/04/27 08:58:15;;;;;;;2.62;2.42;;;;;;;15.63;55.49;101021.30;1775103;80;20901;-46
2022/04/27 09:00:44;;;;;;;4.70;2.60;;;;;;;15.67;56.76;101023.37;1774963;80;20980;-46
2022/04/27 09:03:29;;;;;;;2.55;2.33;;;;;;;15.88;55.94;101016.66;1775042;80;20984;-47
2022/04/27 09:06:13;;;;;;;3.02;2.27;;;;;;;16.15;53.69;101023.19;1775002;80;21229;-47
2022/04/27 09:08:49;;;;;;;3.72;2.20;;;;;;;16.00;53.31;101011.49;1774932;80;20838;-47
2022/04/27 09:11:29;;;;;;;2.35;2.25;;;;;;;15.92;52.93;101012.20;1774967;80;20893;-46
2022/04/27 09:14:01;;;;;;;2.52;1.92;;;;;;;16.00;52.63;101011.49;1774175;80;21490;-47
2022/04/27 09:22:11;;;;;;;1.85;1.72;;;;;;;16.15;50.58;101017.13;1780760;80;21497;-46
2022/04/27 09:24:58;;;;;;;2.00;1.87;;;;;;;16.21;49.71;101011.27;1780643;80;21371;-47
2022/04/27 09:27:26;;;;;;;4.40;1.42;;;;;;;16.27;48.50;101012.79;1780701;80;20964;-46
2022/04/27 09:30:14;;;;;;;2.83;1.70;;;;;;;16.20;48.08;101003.46;1780785;80;20951;-46
2022/04/27 09:32:51;;;;;;;1.80;1.70;;;;;;;16.27;49.14;100998.89;1780713;80;20995;-46
2022/04/27 09:35:35;;;;;;;2.65;2.00;;;;;;;16.30;48.73;100992.26;1780568;80;20877;-46
2022/04/27 09:38:15;;;;;;;2.20;2.00;;;;;;;16.50;48.40;100992.43;1780625;80;21501;-46
2022/04/27 09:40:52;;;;;;;8.63;2.25;;;;;;;16.33;49.13;101002.16;1780674;80;20889;-46
2022/04/27 09:43:44;;;;;;;;;;;;;;;16.26;49.93;100993.27;1783431;80;20924;-46
2022/04/27 09:46:25;;;;;;;3.00;1.80;;;;;;;16.27;50.49;101001.04;1780836;80;20143;-46
2022/04/27 09:49:14;;;;;;;2.70;2.00;;;;;;;16.20;49.68;101002.16;1780621;80;21023;-47
2022/04/27 09:51:54;;;;;;;3.05;2.10;;;;;;;16.23;50.20;100999.00;1780672;80;20921;-47
2022/04/27 09:54:34;;;;;;;2.05;1.95;;;;;;;16.51;48.33;101001.11;1776244;80;21015;-46
2022/04/27 09:56:59;;;;;;;1.75;1.62;;;;;;;16.67;47.91;101001.42;1779460;80;20916;-46
2022/04/27 09:59:34;;;;;;;2.80;1.65;;;;;;;16.57;48.59;101000.92;1780748;80;20924;-47
2022/04/27 10:02:07;;;;;;;3.20;1.85;;;;;;;16.35;48.82;101006.87;1780770;80;21426;-48
2022/04/27 10:04:37;;;;;;;1.95;1.85;;;;;;;16.32;49.96;100996.53;1780954;80;20992;-48
2022/04/27 10:07:07;;;;;;;3.80;1.70;;;;;;;16.59;48.91;101010.86;1780695;80;21457;-47
2022/04/27 10:09:34;;;;;;;2.00;1.70;;;;;;;16.65;49.65;101011.94;1752804;80;20980;-47
2022/04/27 10:12:06;;;;;;;3.72;1.75;;;;;;;16.60;48.28;101013.88;1780750;80;21946;-48
2022/04/27 10:14:34;;;;;;;5.95;2.02;;;;;;;16.48;48.53;101016.45;1753117;80;20837;-47
2022/04/27 10:17:04;;;;;;;1.72;1.62;;;;;;;16.26;48.96;101012.86;1780687;80;20908;-47
2022/04/27 10:19:31;;;;;;;1.82;1.70;;;;;;;16.21;48.43;101026.93;1736139;81;20869;-47
2022/04/27 10:21:57;;;;;;;1.57;1.47;;;;;;;16.22;48.61;101016.02;1754609;81;20928;-46
2022/04/27 10:24:49;;;;;;;6.87;2.05;;;;;;;16.41;49.05;101018.85;1754575;81;20939;-47
2022/04/27 10:27:24;;;;;;;1.35;1.35;;;;;;;16.76;46.43;101012.00;1754482;81;20987;-46
2022/04/27 10:30:02;;;;;;;1.90;1.50;;;;;;;16.70;46.91;101027.48;1754789;81;20925;-46
2022/04/27 10:32:44;;;;;;;1.30;1.30;;;;;;;16.74;46.39;101025.59;1725336;81;20983;-47
2022/04/27 10:35:17;;;;;;;4.33;1.50;;;;;;;16.73;46.56;101026.49;1754792;81;20996;-47
2022/04/27 10:38:08;;;;;;;1.32;1.17;;;;;;;16.68;46.41;101026.68;1754392;81;21052;-47
2022/04/27 10:40:42;;;;;;;1.35;1.25;;;;;;;16.72;45.69;101023.48;1753827;79;20924;-46
2022/04/27 10:43:14;;;;;;;4.03;1.50;;;;;;;16.75;45.66;101022.06;1754711;81;20900;-47
2022/04/27 10:45:47;;;;;;;1.42;1.32;;;;;;;16.93;45.68;101021.41;1752857;81;20964;-47
2022/04/27 10:48:22;;;;;;;1.00;1.00;;;;;;;17.07;46.61;101028.78;1754847;79;20889;-48
2022/04/27 10:51:03;;;;;;;3.17;1.40;;;;;;;17.15;45.32;101029.82;1751087;81;21269;-49
2022/04/27 10:53:43;;;;;;;2.33;1.37;;;;;;;17.20;44.80;101012.19;1754851;81;20932;-48
2022/04/27 10:56:26;;;;;;;1.17;1.10;;;;;;;17.10;45.10;101030.45;1754755;81;21522;-48
2022/04/27 10:58:54;;;;;;;1.45;1.35;;;;;;;17.16;45.19;101014.52;1754867;81;20948;-47
2022/04/27 11:01:31;;;;;;;2.35;1.20;;;;;;;17.36;44.82;101017.69;1754939;81;21058;-47
2022/04/27 11:04:04;;;;;;;1.80;1.30;;;;;;;17.36;45.42;101014.23;1754798;81;21507;-48
2022/04/27 11:07:05;;;;;;;4.80;1.20;;;;;;;17.52;44.53;101005.33;1754902;81;21699;-47
2022/04/27 11:09:47;;;;;;;2.67;1.15;;;;;;;17.68;42.22;101002.96;1745907;81;20909;-47
2022/04/27 11:12:14;;;;;;;1.45;1.35;;;;;;;17.36;42.90;101011.14;1754808;81;21003;-46
2022/04/27 11:14:40;;;;;;;1.20;1.00;;;;;;;17.33;43.28;101003.89;1754836;79;20872;-45
2022/04/27 11:17:07;;;;;;;1.17;1.05;;;;;;;17.35;42.47;101026.92;1754755;81;21219;-46
2022/04/27 11:19:36;;;;;;;1.30;1.00;;;;;;;17.21;43.26;101021.73;1764798;80;20889;-46
2022/04/27 11:22:14;;;;;;;1.10;1.10;;;;;;;17.33;44.34;101019.59;1775002;80;20984;-47
2022/04/27 11:24:45;;;;;;;1.17;1.17;;;;;;;17.58;42.97;101012.94;1775072;80;20886;-46
2022/04/27 11:27:12;;;;;;;1.57;1.40;;;;;;;17.79;42.68;101010.39;1774956;80;21011;-46
2022/04/27 11:29:40;;;;;;;0.90;0.90;;;;;;;17.83;41.54;101019.82;1774979;80;20905;-46
2022/04/27 11:32:09;;;;;;;0.90;0.90;;;;;;;17.77;41.43;100990.80;1774923;80;20925;-46
2022/04/27 11:34:37;;;;;;;1.00;1.00;;;;;;;17.68;41.66;101001.66;1775044;80;21019;-46
2022/04/27 11:37:20;;;;;;;1.85;1.27;;;;;;;17.75;41.70;101003.58;1775137;80;21438;-46
2022/04/27 11:39:48;;;;;;;4.40;1.07;;;;;;;17.77;42.37;101005.20;1753693;80;20929;-46
2022/04/27 11:42:19;;;;;;;1.62;1.00;;;;;;;17.83;41.20;101004.59;1774792;80;21235;-47
2022/04/27 11:44:52;;;;;;;2.15;1.10;;;;;;;17.74;42.24;101003.19;1775090;80;21000;-48
2022/04/27 11:47:31;;;;;;;1.00;1.00;;;;;;;17.71;41.66;100996.30;1775156;80;21031;-47
2022/04/27 11:50:04;;;;;;;1.20;1.10;;;;;;;17.72;41.32;101008.47;1774926;80;20925;-45
2022/04/27 11:52:36;;;;;;;1.40;1.02;;;;;;;17.66;41.66;101003.01;1775142;80;21557;-46
2022/04/27 11:55:12;;;;;;;0.95;0.93;;;;;;;17.82;41.23;101002.41;1775118;80;21202;-45
2022/04/27 11:57:40;;;;;;;1.10;1.10;;;;;;;17.72;41.39;101002.39;1777988;80;21435;-47
2022/04/27 12:00:10;;;;;;;5.58;1.00;;;;;;;17.80;42.48;101009.00;1774934;80;20916;-47